Latest Weather Observations for Esperance

IDW60801

Issued at 11:02 am WST Tuesday 3 March 2015 (issued every 30 minutes, with the page automatically refreshed every 10 minutes)

About weather observations | Map of weather stations | Latest weather observations for WA | Other Formats
Station Details ID: 009789 Name: ESPERANCE Lat: -33.83 Lon: 121.89 Height: 25.0 m
Data from the previous 72 hours. | See also: Recent months at Esperance
Date/Time
WST
Temp
°C
App
Temp
°C
Dew
Point
Rel
Hum
%
Delta-T
°C
Wind Press
QNH
hPa
Press
MSL
hPa
Rain
since 9 am
mm
Dir
 
Spd
km/h
Gust
km/h
Spd
kts
Gust
kts
03/10:30am 22.5 19.9 13.7 57 5.1 SSE 20 24 11 13 1023.0 1022.9 0.0
03/10:00am 22.3 19.9 12.6 54 5.5 SSE 17 20 9 11 1023.0 1022.9 0.0
03/09:30am 21.7 19.3 12.7 56 5.1 SSE 17 20 9 11 1023.0 1022.9 0.0
03/09:00am 21.6 19.6 12.8 57 5.0 SE 15 19 8 10 1023.0 1022.9 0.4
03/08:30am 21.4 20.3 13.2 59 4.7 SE 11 17 6 9 1022.9 1022.8 0.2
03/07:00am 17.8 19.0 13.7 77 2.3 CALM 0 0 0 0 1022.9 1022.8 0.2
03/06:30am 17.1 18.2 13.5 79 2.0 CALM 0 0 0 0 1022.7 1022.6 0.2
03/05:30am 17.0 17.4 13.6 80 1.9 NNE 4 6 2 3 1022.1 1022.0 0.2
03/05:00am 17.0 18.1 13.6 80 1.9 CALM 0 0 0 0 1021.7 1021.6 0.2
03/04:30am 17.1 18.1 13.2 78 2.2 CALM 0 0 0 0 1021.5 1021.4 0.2
03/04:00am 17.0 18.1 13.4 79 2.0 CALM 0 0 0 0 1021.4 1021.3 0.2
03/03:30am 16.8 17.2 13.6 81 1.8 NNW 4 7 2 4 1021.3 1021.2 0.2
03/03:00am 16.9 16.6 13.3 79 2.0 NNE 7 9 4 5 1021.2 1021.1 0.2
03/02:30am 16.7 16.5 13.5 81 1.8 NNE 7 11 4 6 1021.0 1020.9 0.2
03/02:00am 16.8 16.5 13.4 80 1.9 NE 7 9 4 5 1020.9 1020.8 0.2
03/01:30am 17.0 16.7 13.2 78 2.1 ENE 7 11 4 6 1021.0 1020.9 0.2
03/01:00am 16.9 16.2 13.3 79 2.0 NE 9 13 5 7 1021.3 1021.2 0.2
03/12:30am 17.2 16.5 13.3 78 2.2 ENE 9 13 5 7 1021.2 1021.1 0.2
03/12:00am 17.0 16.7 13.4 79 2.0 ENE 7 11 4 6 1021.3 1021.2 0.2
 
Date/Time
WST
Temp
°C
App
Temp
°C
Dew
Point
Rel
Hum
%
Delta-T
°C
Wind Press
QNH
hPa
Press
MSL
hPa
Rain
since 9 am
mm
Dir
 
Spd
km/h
Gust
km/h
Spd
kts
Gust
kts
02/11:30pm 17.0 16.7 13.4 79 2.0 ENE 7 9 4 5 1021.2 1021.1 0.2
02/11:00pm 17.5 16.9 13.6 78 2.2 E 9 17 5 9 1021.2 1021.1 0.2
02/10:30pm 18.1 17.3 14.1 77 2.3 E 11 19 6 10 1021.2 1021.1 0.2
02/10:00pm 18.8 17.1 14.8 77 2.3 ESE 17 22 9 12 1021.1 1021.0 0.2
02/09:30pm 18.8 17.2 16.1 84 1.6 ESE 19 28 10 15 1021.0 1020.9 0.2
02/09:11pm 18.9 16.7 16.0 83 1.7 ESE 22 28 12 15 1020.8 1020.7 0.2
02/09:00pm 18.9 17.1 16.0 83 1.7 SE 20 28 11 15 1020.8 1020.7 0.2
02/08:30pm 18.8 17.0 15.9 83 1.7 SE 20 30 11 16 1020.4 1020.3 0.2
02/08:00pm 18.7 16.4 15.6 82 1.8 SE 22 32 12 17 1019.8 1019.7 0.2
02/07:30pm 18.9 15.8 15.5 80 2.0 SE 26 35 14 19 1019.0 1018.9 0.2
02/07:00pm 19.2 15.9 14.9 76 2.5 SE 26 37 14 20 1018.4 1018.3 0.2
02/06:30pm 19.7 15.7 13.0 65 3.8 SE 26 35 14 19 1018.0 1017.9 0.2
02/06:00pm 19.9 15.9 14.2 69 3.3 SSE 28 39 15 21 1017.8 1017.7 0.2
02/05:30pm 19.9 16.4 15.5 76 2.6 SSE 28 37 15 20 1017.7 1017.6 0.2
02/05:00pm 20.1 16.9 15.4 74 2.8 SSE 26 39 14 21 1017.7 1017.6 0.2
02/04:30pm 20.1 16.5 15.2 73 2.9 SSE 28 35 15 19 1017.4 1017.3 0.2
02/04:00pm 20.3 16.1 15.8 75 2.7 SSE 32 43 17 23 1017.1 1017.0 0.2
02/03:30pm 21.5 17.4 14.9 66 3.9 SSE 30 43 16 23 1016.9 1016.8 0.2
02/03:00pm 21.6 17.2 15.2 67 3.8 SSE 32 39 17 21 1016.6 1016.5 0.2
02/02:30pm 21.8 17.7 15.0 65 4.0 SSE 30 41 16 22 1016.7 1016.6 0.2
02/02:00pm 22.1 17.6 14.8 63 4.3 SE 32 41 17 22 1016.8 1016.7 0.2
02/01:30pm 21.7 17.5 14.7 64 4.1 SE 30 39 16 21 1016.7 1016.6 0.2
02/01:00pm 21.8 17.1 14.9 65 4.1 SSE 33 44 18 24 1016.9 1016.8 0.2
02/12:30pm 22.4 18.3 14.8 62 4.5 SSE 30 39 16 21 1016.8 1016.7 0.2
02/12:00pm 22.1 18.0 15.0 64 4.2 SSE 30 37 16 20 1016.8 1016.7 0.2
02/11:30am 21.3 18.1 14.3 64 4.1 SE 24 32 13 17 1017.4 1017.3 0.2
02/11:00am 21.0 18.6 14.3 65 3.9 SE 20 26 11 14 1017.7 1017.6 0.2
02/10:30am 20.2 17.5 15.7 75 2.7 SE 24 35 13 19 1017.5 1017.4 0.2
02/10:00am 20.6 17.5 15.7 73 2.9 SE 26 35 14 19 1017.5 1017.4 0.2
02/09:30am 19.1 18.4 16.4 84 1.6 SE 15 24 8 13 1017.6 1017.5 0.2
02/09:03am 18.2 16.5 15.8 86 1.4 SE 19 30 10 16 1017.5 1017.4 0.0
02/09:00am 18.3 16.7 15.9 86 1.4 SE 19 30 10 16 1017.5 1017.4 0.0
02/08:44am 18.8 16.7 16.3 85 1.5 SE 22 32 12 17 1017.3 1017.2 0.0
02/08:30am 19.6 17.9 16.3 81 2.0 SE 20 28 11 15 1017.2 1017.1 0.0
02/08:00am 19.7 18.0 16.2 80 2.1 SE 20 26 11 14 1016.8 1016.7 0.0
02/07:30am 19.7 18.2 15.3 76 2.6 SE 17 24 9 13 1016.6 1016.5 0.0
02/07:00am 19.6 17.8 14.4 72 3.0 ESE 17 24 9 13 1016.1 1016.0 0.0
02/06:30am 19.3 17.9 14.5 74 2.8 ESE 15 22 8 12 1016.0 1015.9 0.0
02/06:00am 19.1 17.2 14.1 73 2.9 ESE 17 22 9 12 1015.5 1015.4 0.0
02/05:30am 18.7 17.1 13.8 73 2.8 ESE 15 20 8 11 1015.3 1015.3 0.0
02/05:00am 18.6 16.9 13.5 72 2.9 ESE 15 20 8 11 1015.1 1015.1 0.0
02/04:30am 18.5 17.1 13.4 72 2.9 ESE 13 19 7 10 1014.8 1014.8 0.0
02/04:00am 18.4 17.0 13.3 72 2.9 SE 13 17 7 9 1014.4 1014.4 0.0
02/03:30am 18.4 17.7 13.3 72 2.9 E 9 13 5 7 1014.3 1014.3 0.0
02/03:00am 18.7 17.6 13.0 69 3.2 ESE 11 17 6 9 1014.2 1014.2 0.0
02/02:30am 18.6 17.8 12.9 69 3.2 ESE 9 15 5 8 1014.1 1014.1 0.0
02/02:00am 18.8 17.2 12.7 67 3.4 E 13 20 7 11 1014.0 1014.0 0.0
02/01:30am 18.9 17.3 12.7 67 3.5 E 13 19 7 10 1013.6 1013.6 0.0
02/01:00am 19.0 17.3 12.6 66 3.6 E 13 24 7 13 1013.9 1013.9 0.0
02/12:30am 19.1 17.5 12.7 66 3.6 E 13 20 7 11 1014.0 1014.0 0.0
02/12:00am 19.4 17.3 12.4 64 3.9 E 15 22 8 12 1013.9 1013.9 0.0
 
Date/Time
WST
Temp
°C
App
Temp
°C
Dew
Point
Rel
Hum
%
Delta-T
°C
Wind Press
QNH
hPa
Press
MSL
hPa
Rain
since 9 am
mm
Dir
 
Spd
km/h
Gust
km/h
Spd
kts
Gust
kts
01/11:30pm 19.6 17.9 12.5 63 4.0 ENE 13 22 7 12 1013.7 1013.7 0.0
01/11:00pm 19.9 17.6 11.8 59 4.5 E 15 26 8 14 1013.6 1013.6 0.0
01/10:30pm 20.1 17.3 11.4 57 4.8 E 17 24 9 13 1013.5 1013.5 0.0
01/10:00pm 20.5 18.4 11.2 55 5.1 ENE 13 22 7 12 1013.4 1013.4 0.0
01/09:30pm 21.0 18.2 11.2 53 5.4 E 17 30 9 16 1013.2 1013.2 0.0
01/09:00pm 21.5 19.0 11.2 52 5.7 E 15 26 8 14 1013.1 1013.1 0.0
01/08:30pm 22.0 19.2 11.2 50 6.0 ENE 17 28 9 15 1012.6 1012.6 0.0
01/08:00pm 22.3 19.1 11.4 50 6.1 ENE 19 32 10 17 1012.7 1012.7 0.0
01/07:30pm 21.5 19.5 14.9 66 3.9 ESE 19 26 10 14 1012.0 1012.0 0.0
01/07:00pm 21.1 18.5 15.8 71 3.2 ESE 24 33 13 18 1011.7 1011.7 0.0
01/06:30pm 21.1 18.3 15.4 70 3.4 ESE 24 35 13 19 1011.7 1011.7 0.0
01/06:00pm 21.4 18.8 15.0 67 3.8 ESE 22 35 12 19 1011.7 1011.7 0.0
01/05:30pm 21.8 18.8 14.7 64 4.2 SE 24 35 13 19 1011.6 1011.6 0.0
01/05:00pm 21.8 18.5 14.9 65 4.1 SE 26 37 14 20 1011.3 1011.3 0.0
01/04:30pm 21.5 16.9 14.7 65 4.0 SE 32 44 17 24 1011.1 1011.1 0.0
01/04:00pm 21.7 17.1 14.6 64 4.2 SE 32 46 17 25 1011.2 1011.2 0.0
01/03:30pm 22.0 16.8 14.5 62 4.4 SE 35 48 19 26 1011.4 1011.4 0.0
01/03:00pm 23.0 18.0 13.5 55 5.5 SE 32 48 17 26 1011.6 1011.6 0.0
01/02:30pm 22.9 18.0 13.8 56 5.3 SE 32 48 17 26 1011.9 1011.9 0.0
01/02:00pm 23.1 18.1 13.9 56 5.4 SE 33 44 18 24 1012.0 1012.0 0.0
01/01:30pm 24.1 19.8 14.5 55 5.7 SE 30 39 16 21 1012.4 1012.4 0.0
01/01:00pm 24.2 20.3 13.2 50 6.4 SE 26 39 14 21 1012.8 1012.8 0.0
01/12:30pm 26.8 23.1 9.6 34 9.5 NE 19 26 10 14 1013.4 1013.4 0.0
01/12:00pm 25.8 23.5 10.4 38 8.6 ENE 13 22 7 12 1014.2 1014.2 0.0
01/11:30am 25.2 22.7 9.7 37 8.5 ENE 13 26 7 14 1015.0 1015.0 0.0
01/11:00am 24.5 21.7 9.9 39 8.0 ENE 15 22 8 12 1016.0 1015.9 0.0
01/10:30am 23.7 20.5 10.0 42 7.5 NE 17 24 9 13 1016.9 1016.8 0.0
01/10:00am 23.1 20.1 10.8 45 6.8 NNE 17 26 9 14 1017.5 1017.4 0.0
01/09:30am 21.6 18.7 11.1 51 5.8 NNE 17 28 9 15 1017.8 1017.7 0.0
01/09:00am 21.0 18.4 12.1 56 5.0 NNE 17 28 9 15 1018.0 1017.9 0.2
01/08:30am 19.4 17.7 12.6 64 3.8 NE 13 20 7 11 1018.3 1018.2 0.2
01/08:00am 18.4 17.3 13.1 71 3.0 ENE 11 17 6 9 1018.4 1018.3 0.2
01/07:30am 16.9 15.9 12.4 75 2.5 ENE 9 13 5 7 1018.3 1018.2 0.2
01/07:00am 15.7 14.6 11.8 77 2.1 ENE 9 15 5 8 1018.4 1018.3 0.2
01/06:30am 14.4 13.1 11.4 82 1.6 NE 9 11 5 6 1018.5 1018.4 0.2
01/06:00am 14.0 12.4 11.4 84 1.4 ENE 11 17 6 9 1018.2 1018.1 0.2
01/05:30am 13.9 12.2 11.1 83 1.5 ENE 11 17 6 9 1017.9 1017.8 0.2
01/05:00am 14.1 11.9 10.9 81 1.7 NE 13 19 7 10 1017.6 1017.5 0.2
01/04:30am 14.4 12.6 10.8 79 1.9 ENE 11 17 6 9 1017.6 1017.5 0.2
01/04:00am 14.5 12.3 10.7 78 2.0 E 13 19 7 10 1017.4 1017.3 0.2
01/03:30am 14.7 12.9 10.9 78 2.0 ENE 11 15 6 8 1017.6 1017.5 0.2
01/03:00am 14.6 13.6 11.0 79 1.9 ENE 7 11 4 6 1017.7 1017.6 0.2
01/02:30am 14.8 13.9 11.2 79 1.9 ENE 7 9 4 5 1017.7 1017.6 0.2
01/02:00am 15.1 13.8 11.2 77 2.1 NE 9 13 5 7 1017.8 1017.7 0.2
01/01:30am 15.5 14.7 11.6 77 2.1 NE 7 11 4 6 1018.0 1017.9 0.2
01/01:00am 15.7 14.4 11.4 75 2.3 ENE 9 13 5 7 1017.9 1017.8 0.2
01/12:30am 15.3 14.4 11.4 77 2.1 ENE 7 11 4 6 1018.2 1018.1 0.2
01/12:00am 15.1 14.2 11.4 78 2.0 NE 7 11 4 6 1018.2 1018.1 0.2
 
Date/Time
WST
Temp
°C
App
Temp
°C
Dew
Point
Rel
Hum
%
Delta-T
°C
Wind Press
QNH
hPa
Press
MSL
hPa
Rain
since 9 am
mm
Dir
 
Spd
km/h
Gust
km/h
Spd
kts
Gust
kts
28/11:30pm 15.4 14.4 11.1 75 2.3 ENE 7 9 4 5 1018.6 1018.5 0.2
28/11:00pm 15.3 14.3 11.0 75 2.3 E 7 9 4 5 1018.7 1018.6 0.2
28/10:30pm 15.1 14.1 11.0 76 2.2 E 7 11 4 6 1018.9 1018.8 0.2
28/10:00pm 15.3 14.0 11.2 76 2.2 E 9 11 5 6 1019.3 1019.2 0.2
28/09:30pm 15.5 14.2 11.2 75 2.3 E 9 13 5 7 1019.3 1019.2 0.2
28/09:00pm 17.0 14.0 10.8 67 3.3 ESE 17 24 9 13 1019.3 1019.2 0.2
28/08:30pm 17.1 13.2 10.7 66 3.4 ESE 22 33 12 18 1019.2 1019.1 0.2
28/08:00pm 17.1 13.5 10.7 66 3.4 ESE 20 30 11 16 1019.0 1018.9 0.2
28/07:30pm 17.4 13.9 10.9 65 3.5 ESE 20 32 11 17 1018.8 1018.7 0.2
28/07:00pm 17.5 13.6 10.8 65 3.6 SE 22 32 12 17 1018.5 1018.4 0.2
28/06:30pm 17.7 13.5 11.0 65 3.6 SE 24 32 13 17 1018.4 1018.3 0.2
28/06:00pm 18.2 14.0 11.2 63 3.8 SE 24 35 13 19 1018.4 1018.3 0.2
28/05:30pm 18.9 14.7 11.2 61 4.2 SE 24 33 13 18 1018.5 1018.4 0.2
28/05:00pm 18.8 14.8 11.7 63 3.9 SE 24 35 13 19 1018.7 1018.6 0.2
28/04:30pm 19.1 14.8 12.1 64 3.9 SSE 26 37 14 20 1018.6 1018.5 0.2
28/04:00pm 19.2 14.9 12.0 63 4.0 SE 26 37 14 20 1018.5 1018.4 0.2
28/03:30pm 20.4 15.7 12.0 58 4.7 SE 28 37 15 20 1018.6 1018.5 0.2
28/03:00pm 19.6 15.4 12.4 63 4.0 SE 26 33 14 18 1018.9 1018.8 0.2
28/02:30pm 20.1 15.3 11.6 58 4.7 SSE 28 35 15 19 1018.8 1018.7 0.2
28/02:00pm 19.5 14.8 11.9 61 4.2 SSE 28 37 15 20 1018.7 1018.6 0.2
28/01:30pm 19.9 15.0 12.4 62 4.2 SE 30 39 16 21 1018.6 1018.5 0.2
28/01:00pm 20.0 15.5 12.7 63 4.1 SSE 28 35 15 19 1018.7 1018.6 0.2
28/12:30pm 19.8 15.4 12.9 64 3.9 SSE 28 39 15 21 1018.6 1018.5 0.2
28/12:00pm 19.7 14.5 12.8 64 3.9 SSE 32 39 17 21 1018.4 1018.3 0.2
28/11:30am 19.8 15.5 13.1 65 3.8 SSE 28 39 15 21 1018.3 1018.2 0.2

Other Formats:

Comma delimited format used in spreadsheet applications
http://www.bom.gov.au/fwo/IDW60801/IDW60801.94638.axf

JavaScript Object Notation format (JSON) in row-major order
http://www.bom.gov.au/fwo/IDW60801/IDW60801.94638.json